Time;durP1;ratioP1;P1;durP2;ratioP2;P2;SDS_P1;SDS_P2;PMS_P1;PMS_P2;Temp;Humidity;BMP_temperature;BMP_pressure;BME280_temperature;BME280_humidity;BME280_pressure;Samples;Min_cycle;Max_cycle;Signal;HPM_P1;HPM_P2
2021/03/07 00:00:08;;;;;;;15.78;7.83;;;;;;;1.37;61.90;101191.55;2078171;84;22469;-74
2021/03/07 00:03:10;;;;;;;13.90;7.60;;;;;;;1.34;61.90;101189.94;2077259;83;21644;-74
2021/03/07 00:06:12;;;;;;;14.90;7.47;;;;;;;1.34;62.37;101189.94;2078859;84;21202;-75
2021/03/07 00:09:14;;;;;;;17.60;7.65;;;;;;;1.34;62.27;101191.25;2072993;84;21124;-74
2021/03/07 00:12:15;;;;;;;21.80;7.90;;;;;;;1.34;62.11;101189.47;2076934;83;21281;-74
2021/03/07 00:15:20;;;;;;;13.32;7.67;;;;;;;1.34;62.52;101201.70;2079997;84;21550;-75
2021/03/07 00:18:22;;;;;;;18.80;7.85;;;;;;;1.31;62.20;101198.78;2074008;84;21697;-74
2021/03/07 00:21:23;;;;;;;16.67;8.25;;;;;;;1.31;62.41;101195.33;2076241;84;21163;-74
2021/03/07 00:24:25;;;;;;;18.07;7.33;;;;;;;1.31;62.41;101190.94;2072955;84;21658;-74
2021/03/07 00:27:28;;;;;;;17.80;7.22;;;;;;;1.29;62.62;101176.25;2078134;83;21164;-75
2021/03/07 00:30:29;;;;;;;16.05;6.90;;;;;;;1.28;62.56;101174.11;2021076;87;21518;-74
2021/03/07 00:33:31;;;;;;;12.58;7.20;;;;;;;1.28;62.88;101174.11;2038500;84;21349;-74
2021/03/07 00:36:34;;;;;;;15.13;7.60;;;;;;;1.27;62.75;101168.52;2000797;87;21194;-74
2021/03/07 00:39:35;;;;;;;17.75;7.58;;;;;;;1.26;62.65;101164.19;2033923;86;21596;-74
2021/03/07 00:42:44;;;;;;;15.15;7.72;;;;;;;1.27;62.80;101161.97;2038396;86;21648;-74
2021/03/07 00:45:46;;;;;;;15.00;7.60;;;;;;;1.26;62.76;101161.57;2027162;85;21187;-74
2021/03/07 00:48:48;;;;;;;16.75;7.97;;;;;;;1.26;62.89;101158.95;2027134;86;21129;-75
2021/03/07 00:51:50;;;;;;;15.98;6.80;;;;;;;1.27;62.95;101155.44;2024267;85;21156;-74
2021/03/07 00:54:51;;;;;;;14.85;7.65;;;;;;;1.29;63.03;101149.64;2027732;86;21534;-75
2021/03/07 00:57:53;;;;;;;16.60;7.15;;;;;;;1.28;62.91;101138.81;2028662;85;21187;-74
2021/03/07 01:00:55;;;;;;;14.83;6.95;;;;;;;1.27;63.29;101138.91;2026863;85;21194;-75
2021/03/07 01:03:56;;;;;;;13.05;6.70;;;;;;;1.28;63.04;101134.05;2081734;84;21199;-74
2021/03/07 01:06:58;;;;;;;12.33;6.58;;;;;;;1.30;63.14;101131.73;2075685;83;21132;-75
2021/03/07 01:10:00;;;;;;;18.00;7.60;;;;;;;1.32;63.17;101122.48;2075757;84;21258;-74
2021/03/07 01:13:06;;;;;;;15.83;7.67;;;;;;;1.33;63.10;101113.73;2075789;83;21201;-75
2021/03/07 01:16:08;;;;;;;13.98;7.67;;;;;;;1.34;63.14;101109.70;2076561;84;21519;-74
2021/03/07 01:19:10;;;;;;;15.85;7.25;;;;;;;1.34;63.10;101103.64;2078575;83;22356;-75
2021/03/07 01:22:11;;;;;;;19.60;7.90;;;;;;;1.36;63.13;101103.57;2080043;84;21247;-74
2021/03/07 01:25:14;;;;;;;13.95;7.55;;;;;;;1.37;63.10;101100.86;2080792;83;21115;-74
2021/03/07 01:28:16;;;;;;;14.03;7.55;;;;;;;1.40;63.17;101097.23;2080601;84;21601;-74
2021/03/07 01:31:18;;;;;;;12.23;6.70;;;;;;;1.38;63.20;101095.16;2078233;84;21315;-74
2021/03/07 01:34:20;;;;;;;13.83;8.03;;;;;;;1.37;63.41;101093.48;2079792;83;21151;-75
2021/03/07 01:37:21;;;;;;;14.40;7.05;;;;;;;1.38;63.57;101084.69;2078652;83;21179;-74
2021/03/07 01:40:33;;;;;;;14.00;7.30;;;;;;;1.37;63.43;101080.41;2081392;83;21243;-74
2021/03/07 01:43:35;;;;;;;14.68;7.83;;;;;;;1.38;63.47;101082.95;2077756;83;21231;-74
2021/03/07 01:46:37;;;;;;;15.20;7.95;;;;;;;1.39;63.49;101076.78;2080906;84;21666;-74
2021/03/07 01:49:39;;;;;;;12.30;7.17;;;;;;;1.39;63.73;101074.63;2079046;83;21136;-75
2021/03/07 01:52:41;;;;;;;14.93;7.35;;;;;;;1.39;63.72;101075.47;2077695;84;21320;-75
2021/03/07 01:55:45;;;;;;;13.05;7.62;;;;;;;1.40;63.80;101072.38;2078412;84;21183;-74
2021/03/07 01:58:51;;;;;;;15.63;8.35;;;;;;;1.41;63.97;101069.70;2079286;83;21591;-74
2021/03/07 02:01:55;;;;;;;16.02;8.50;;;;;;;1.42;63.83;101060.08;2085203;83;21425;-81
2021/03/07 02:04:57;;;;;;;16.07;8.23;;;;;;;1.42;63.79;101053.54;2046589;85;21684;-80
2021/03/07 02:08:00;;;;;;;19.77;8.00;;;;;;;1.44;63.91;101053.00;2044943;85;21180;-80
2021/03/07 02:11:01;;;;;;;15.70;7.72;;;;;;;1.44;63.84;101053.84;2046777;85;21227;-78
2021/03/07 02:14:05;;;;;;;11.38;7.42;;;;;;;1.45;63.75;101042.91;2048822;84;21127;-79
2021/03/07 02:17:06;;;;;;;15.28;7.95;;;;;;;1.47;63.76;101044.98;2046757;84;21125;-78
2021/03/07 02:20:11;;;;;;;16.62;7.62;;;;;;;1.49;63.78;101037.42;2054051;85;21156;-78
2021/03/07 02:23:24;;;;;;;14.43;8.15;;;;;;;1.50;63.72;101032.56;2055265;84;21200;-79
2021/03/07 02:26:26;;;;;;;14.28;7.83;;;;;;;1.52;63.68;101031.15;2052756;84;21603;-78
2021/03/07 02:29:28;;;;;;;16.02;7.70;;;;;;;1.52;63.81;101028.09;2054748;84;21087;-78
2021/03/07 02:32:34;;;;;;;12.75;7.12;;;;;;;1.51;63.86;101021.16;2050294;85;21265;-79
2021/03/07 02:35:41;;;;;;;15.60;7.70;;;;;;;1.51;63.87;101025.08;2053987;84;21239;-81
2021/03/07 02:38:45;;;;;;;12.10;7.12;;;;;;;1.50;63.83;101012.11;2051292;85;21133;-79
2021/03/07 02:41:47;;;;;;;14.90;7.20;;;;;;;1.51;64.00;101008.55;1996329;84;21206;-82
2021/03/07 02:45:01;;;;;;;10.60;6.87;;;;;;;1.51;63.92;101005.47;2054910;84;21629;-83
2021/03/07 02:48:03;;;;;;;15.00;7.53;;;;;;;1.51;64.28;101001.55;2047635;84;21198;-78
2021/03/07 02:51:08;;;;;;;12.50;6.92;;;;;;;1.53;64.05;100989.70;2054091;84;21104;-85
2021/03/07 02:54:12;;;;;;;12.63;7.00;;;;;;;1.54;64.26;100985.67;2053511;84;21255;-83
2021/03/07 02:57:14;;;;;;;11.83;6.83;;;;;;;1.54;64.16;100990.06;2052028;84;21136;-79
2021/03/07 03:00:18;;;;;;;11.33;6.50;;;;;;;1.53;64.38;100983.16;2052827;84;21136;-81
2021/03/07 03:03:25;;;;;;;10.78;6.85;;;;;;;1.53;64.37;100975.31;2052971;84;21521;-79
2021/03/07 03:06:28;;;;;;;8.98;5.80;;;;;;;1.55;64.36;100974.77;2055053;84;21267;-79
2021/03/07 03:09:34;;;;;;;10.78;6.00;;;;;;;1.55;64.43;100972.98;2054301;84;22415;-79
2021/03/07 03:12:38;;;;;;;8.05;5.75;;;;;;;1.59;64.50;100971.50;2050809;85;21125;-85
2021/03/07 03:15:40;;;;;;;7.97;5.30;;;;;;;1.59;64.42;100973.64;2052743;84;21122;-78
2021/03/07 03:18:44;;;;;;;9.73;5.83;;;;;;;1.60;64.65;100970.55;2052540;85;21559;-78
2021/03/07 03:21:47;;;;;;;9.08;5.95;;;;;;;1.59;64.51;100967.11;2028708;85;21181;-79
2021/03/07 03:24:49;;;;;;;7.83;5.80;;;;;;;1.61;64.54;100970.48;2051320;84;21148;-77
2021/03/07 03:27:53;;;;;;;9.05;6.20;;;;;;;1.61;64.52;100961.80;2055730;84;21247;-78
2021/03/07 03:30:56;;;;;;;10.65;6.05;;;;;;;1.61;64.98;100953.95;2049860;84;21224;-80
2021/03/07 03:33:58;;;;;;;9.88;6.60;;;;;;;1.62;64.81;100953.01;2053719;84;21136;-83
2021/03/07 03:37:00;;;;;;;10.03;7.05;;;;;;;1.61;64.64;100935.17;2054722;84;21251;-77
2021/03/07 03:40:05;;;;;;;10.38;7.08;;;;;;;1.63;64.65;100931.14;2049317;84;21128;-78
2021/03/07 03:43:10;;;;;;;14.30;8.18;;;;;;;1.62;64.74;100928.99;2054296;85;21165;-78
2021/03/07 03:46:12;;;;;;;10.35;7.05;;;;;;;1.64;64.68;100927.61;2030874;85;21541;-84
2021/03/07 03:49:30;;;;;;;14.15;9.13;;;;;;;1.66;64.75;100925.28;2054833;84;21183;-79
2021/03/07 03:52:37;;;;;;;14.20;8.45;;;;;;;1.67;64.66;100925.64;2052869;85;21639;-78
2021/03/07 03:55:44;;;;;;;16.48;9.55;;;;;;;1.69;64.84;100927.72;2053962;84;21605;-83
2021/03/07 03:58:48;;;;;;;14.90;9.43;;;;;;;1.68;64.83;100919.47;2053371;85;21166;-79
2021/03/07 04:01:50;;;;;;;16.37;9.75;;;;;;;1.68;64.81;100929.09;2051413;84;21151;-78
2021/03/07 04:04:57;;;;;;;18.02;10.65;;;;;;;1.67;64.81;100919.11;2046032;84;21757;-80
2021/03/07 04:08:01;;;;;;;16.60;10.85;;;;;;;1.66;64.83;100925.28;2042920;85;21610;-78
2021/03/07 04:11:03;;;;;;;18.85;11.22;;;;;;;1.65;64.88;100920.12;2019075;86;21257;-80
2021/03/07 04:14:07;;;;;;;21.42;12.05;;;;;;;1.65;64.99;100923.58;2039967;86;21241;-78
2021/03/07 04:17:09;;;;;;;19.90;12.13;;;;;;;1.64;64.99;100923.22;2043072;85;21612;-77
2021/03/07 04:20:12;;;;;;;19.85;12.68;;;;;;;1.64;65.01;100923.22;2040773;85;21130;-82
2021/03/07 04:23:14;;;;;;;19.57;12.45;;;;;;;1.63;65.08;100918.89;2042242;85;21161;-84
2021/03/07 04:26:16;;;;;;;24.37;15.13;;;;;;;1.64;65.21;100922.38;2040291;85;21137;-79
2021/03/07 04:29:18;;;;;;;19.50;12.68;;;;;;;1.63;65.19;100912.35;2045005;85;21147;-77
2021/03/07 04:32:20;;;;;;;22.07;14.10;;;;;;;1.61;65.44;100903.77;2042723;85;21677;-79
2021/03/07 04:35:22;;;;;;;26.42;13.60;;;;;;;1.60;65.16;100894.22;2040825;84;21215;-78
2021/03/07 04:38:26;;;;;;;21.80;13.30;;;;;;;1.61;65.32;100905.08;2043064;85;21965;-81
2021/03/07 04:41:27;;;;;;;18.17;10.85;;;;;;;1.59;65.29;100895.64;2041741;85;21186;-79
2021/03/07 04:44:29;;;;;;;15.58;10.55;;;;;;;1.59;65.35;100895.16;2042141;85;21916;-78
2021/03/07 04:47:31;;;;;;;17.57;11.30;;;;;;;1.59;65.25;100893.86;2037204;85;21181;-78
2021/03/07 04:50:32;;;;;;;19.05;10.95;;;;;;;1.61;65.33;100893.78;2040850;84;21553;-78
2021/03/07 04:53:34;;;;;;;14.55;9.53;;;;;;;1.62;65.33;100888.44;2025081;84;21652;-80
2021/03/07 04:56:35;;;;;;;15.93;9.80;;;;;;;1.62;65.36;100891.06;2040864;85;21149;-81
2021/03/07 04:59:37;;;;;;;15.03;9.13;;;;;;;1.62;65.31;100887.13;2038779;84;21224;-80
2021/03/07 05:02:39;;;;;;;14.20;8.78;;;;;;;1.61;65.36;100882.84;2039974;85;21276;-78
2021/03/07 05:05:40;;;;;;;14.33;8.15;;;;;;;1.63;65.52;100883.58;2044949;84;21235;-78
2021/03/07 05:08:42;;;;;;;14.25;8.65;;;;;;;1.64;65.53;100885.28;2048756;84;21207;-84
2021/03/07 05:11:44;;;;;;;14.58;8.50;;;;;;;1.65;65.34;100883.50;2046983;85;21207;-79
2021/03/07 05:14:45;;;;;;;10.40;7.22;;;;;;;1.64;65.39;100883.97;2046434;84;21608;-79
2021/03/07 05:17:47;;;;;;;13.05;7.92;;;;;;;1.63;65.38;100887.50;2050179;84;21180;-78
2021/03/07 05:20:49;;;;;;;11.50;7.62;;;;;;;1.62;65.55;100877.14;2049820;84;21217;-79
2021/03/07 05:23:51;;;;;;;11.03;7.30;;;;;;;1.61;65.48;100877.61;2050219;84;22377;-80
2021/03/07 05:26:53;;;;;;;10.25;6.87;;;;;;;1.61;65.51;100873.69;2048812;85;21148;-80
2021/03/07 05:29:54;;;;;;;11.65;7.05;;;;;;;1.62;65.48;100864.06;2050339;84;21132;-79
2021/03/07 05:32:57;;;;;;;10.05;7.05;;;;;;;1.63;65.47;100852.18;2048672;84;21743;-80
2021/03/07 05:35:59;;;;;;;9.03;6.40;;;;;;;1.63;65.49;100858.72;2045144;84;21201;-79
2021/03/07 05:39:00;;;;;;;10.38;7.35;;;;;;;1.62;65.40;100860.97;2047968;84;21221;-78
2021/03/07 05:42:03;;;;;;;12.23;7.55;;;;;;;1.63;65.48;100855.27;2048711;84;21542;-80
2021/03/07 05:45:07;;;;;;;13.85;8.55;;;;;;;1.64;65.42;100851.73;2047646;84;21243;-79
2021/03/07 05:48:09;;;;;;;13.10;7.95;;;;;;;1.64;65.45;100839.97;2051714;84;21210;-83
2021/03/07 05:51:15;;;;;;;13.32;8.48;;;;;;;1.64;65.38;100835.57;2049129;84;21866;-78
2021/03/07 05:54:17;;;;;;;13.50;8.48;;;;;;;1.64;65.53;100835.57;2048145;84;21142;-82
2021/03/07 05:57:24;;;;;;;14.55;9.23;;;;;;;1.64;65.51;100835.57;2049824;84;21248;-78
2021/03/07 06:00:28;;;;;;;15.03;10.00;;;;;;;1.64;65.51;100834.73;2052262;84;21140;-78
2021/03/07 06:03:30;;;;;;;17.82;10.70;;;;;;;1.64;65.54;100836.05;2047782;84;21233;-81
2021/03/07 06:06:32;;;;;;;17.73;10.85;;;;;;;1.61;65.57;100842.77;2014451;86;21724;-75
2021/03/07 06:09:37;;;;;;;19.98;12.40;;;;;;;1.59;65.64;100838.09;1992710;87;21112;-79
2021/03/07 06:12:41;;;;;;;27.02;15.63;;;;;;;1.57;65.63;100839.00;2014204;86;21144;-78
2021/03/07 06:15:48;;;;;;;21.20;12.55;;;;;;;1.55;65.59;100837.44;2017277;86;21212;-77
2021/03/07 06:18:51;;;;;;;22.15;12.05;;;;;;;1.52;65.71;100840.20;2017574;86;21219;-77
2021/03/07 06:21:53;;;;;;;20.32;12.33;;;;;;;1.50;65.67;100839.48;2015814;87;21193;-79
2021/03/07 06:24:55;;;;;;;18.32;10.93;;;;;;;1.49;65.70;100838.64;2018510;86;21175;-79
2021/03/07 06:27:59;;;;;;;19.52;11.38;;;;;;;1.49;65.86;100836.47;2015858;86;21529;-81
2021/03/07 06:31:01;;;;;;;17.80;11.18;;;;;;;1.47;65.74;100836.58;2014871;87;21573;-81
2021/03/07 06:34:04;;;;;;;15.32;10.45;;;;;;;1.48;65.73;100835.63;2018160;86;21135;-80
2021/03/07 06:37:06;;;;;;;17.23;10.00;;;;;;;1.49;65.83;100838.64;2016690;86;21649;-82
2021/03/07 06:40:13;;;;;;;14.75;9.63;;;;;;;1.51;65.73;100839.38;1975343;89;21133;-80
2021/03/07 06:43:26;;;;;;;17.35;9.10;;;;;;;1.51;65.85;100828.07;1974483;89;21227;-80
2021/03/07 06:46:38;;;;;;;15.53;9.25;;;;;;;1.54;65.78;100830.50;1974560;87;21605;-80
2021/03/07 06:49:40;;;;;;;13.20;8.88;;;;;;;1.56;65.66;100831.27;1976936;87;21139;-80
2021/03/07 06:53:00;;;;;;;13.10;8.65;;;;;;;1.58;65.66;100822.86;1971787;89;21221;-78
2021/03/07 06:56:44;;;;;;;15.90;8.73;;;;;;;1.67;65.87;100814.45;2245708;76;23018;-78
2021/03/07 06:59:48;;;;;;;12.90;8.10;;;;;;;1.65;65.59;100817.63;2244462;78;21260;-80
2021/03/07 07:03:10;;;;;;;12.70;7.62;;;;;;;1.68;65.50;100812.20;2233076;78;21668;-79
2021/03/07 07:06:14;;;;;;;12.43;7.05;;;;;;;1.71;65.58;100811.17;2211245;78;21105;-78
2021/03/07 07:09:21;;;;;;;11.08;6.60;;;;;;;1.75;65.51;100805.67;2235382;78;21185;-77
2021/03/07 07:12:32;;;;;;;10.20;7.15;;;;;;;1.78;65.35;100802.87;2237728;78;21210;-79
2021/03/07 07:15:34;;;;;;;10.63;6.10;;;;;;;1.82;65.30;100800.06;2243521;78;21079;-83
2021/03/07 07:18:38;;;;;;;10.00;6.87;;;;;;;1.86;65.04;100799.80;2241333;78;21147;-80
2021/03/07 07:21:40;;;;;;;10.65;7.12;;;;;;;1.92;65.11;100800.72;2237736;78;21160;-79
2021/03/07 07:24:44;;;;;;;12.05;7.20;;;;;;;1.98;64.95;100799.50;2236801;78;21615;-83
2021/03/07 07:27:46;;;;;;;11.25;6.80;;;;;;;2.02;64.80;100795.74;2238547;78;21152;-80
2021/03/07 07:31:10;;;;;;;9.13;6.87;;;;;;;2.07;64.56;100797.61;2239016;78;21109;-80
2021/03/07 07:34:47;;;;;;;12.82;7.62;;;;;;;2.13;64.29;100793.77;2242522;78;21620;-78
2021/03/07 07:38:03;;;;;;;11.18;7.35;;;;;;;2.20;64.37;100789.37;2237025;78;21168;-79
2021/03/07 07:41:26;;;;;;;8.25;6.35;;;;;;;2.26;64.18;100786.00;2237694;78;21124;-78
2021/03/07 07:44:32;;;;;;;9.25;6.58;;;;;;;2.33;63.95;100779.41;2239837;78;21548;-76
2021/03/07 07:47:48;;;;;;;9.43;6.53;;;;;;;2.37;63.89;100778.30;2239045;78;21101;-77
2021/03/07 07:50:50;;;;;;;10.32;7.40;;;;;;;2.42;64.08;100770.95;2234508;78;21524;-83
2021/03/07 07:53:52;;;;;;;10.75;7.20;;;;;;;2.47;63.92;100761.03;2235471;78;21571;-83
2021/03/07 07:56:53;;;;;;;10.30;6.70;;;;;;;2.51;63.92;100765.16;2210765;79;21116;-85
2021/03/07 07:59:55;;;;;;;8.78;6.40;;;;;;;2.55;63.45;100759.23;2215594;79;21168;-84
2021/03/07 08:02:58;;;;;;;13.10;7.42;;;;;;;2.56;63.57;100759.59;2213067;79;21053;-76
2021/03/07 08:06:09;;;;;;;13.72;6.97;;;;;;;2.58;63.31;100763.80;2204512;79;21115;-78
2021/03/07 08:09:45;;;;;;;10.50;7.40;;;;;;;2.61;63.44;100758.36;2212089;79;21132;-80
2021/03/07 08:12:49;;;;;;;12.80;7.28;;;;;;;2.66;63.54;100749.73;2212755;79;21164;-80
2021/03/07 08:15:52;;;;;;;8.73;6.72;;;;;;;2.74;63.41;100756.27;2211188;79;21162;-80
2021/03/07 08:18:55;;;;;;;10.10;7.67;;;;;;;2.77;63.09;100744.27;2212880;79;21576;-80
2021/03/07 08:22:06;;;;;;;11.95;7.78;;;;;;;2.79;63.00;100745.84;2181911;79;21148;-80
2021/03/07 08:25:10;;;;;;;11.83;7.55;;;;;;;2.79;63.02;100740.61;2209059;79;21151;-77
2021/03/07 08:28:38;;;;;;;10.10;7.58;;;;;;;2.81;63.10;100743.11;2215537;79;21152;-79
2021/03/07 08:31:40;;;;;;;13.48;8.60;;;;;;;2.85;62.98;100733.64;2206728;79;21146;-80
2021/03/07 08:34:45;;;;;;;10.55;7.53;;;;;;;2.86;63.06;100731.85;2206610;79;21159;-80
2021/03/07 08:38:14;;;;;;;13.25;8.15;;;;;;;2.89;62.92;100729.86;2207240;79;21168;-81
2021/03/07 08:41:19;;;;;;;13.35;8.40;;;;;;;2.90;62.98;100730.69;2208661;79;21710;-81
2021/03/07 08:44:21;;;;;;;12.28;8.78;;;;;;;2.96;63.15;100725.06;2207256;79;21160;-80
2021/03/07 08:47:28;;;;;;;16.48;10.43;;;;;;;2.99;62.80;100716.98;2212846;79;21188;-82
2021/03/07 08:50:30;;;;;;;24.15;11.90;;;;;;;3.02;62.95;100712.02;2180433;79;21203;-83
2021/03/07 08:53:35;;;;;;;18.82;10.13;;;;;;;3.04;63.17;100709.66;2213075;79;21156;-82
2021/03/07 08:56:38;;;;;;;17.07;9.10;;;;;;;3.10;63.23;100709.23;2224814;78;21129;-81
2021/03/07 08:59:40;;;;;;;17.55;9.45;;;;;;;3.18;63.29;100711.80;2227251;79;21599;-81
2021/03/07 09:02:42;;;;;;;15.43;9.58;;;;;;;3.24;63.02;100703.50;2226148;78;21564;-79
2021/03/07 09:05:45;;;;;;;15.15;9.90;;;;;;;3.27;62.64;100702.00;2196564;78;21100;-82
2021/03/07 09:08:46;;;;;;;14.53;9.80;;;;;;;3.28;62.79;100701.88;2228580;78;21208;-84
2021/03/07 09:11:58;;;;;;;18.17;10.70;;;;;;;3.31;63.06;100699.52;2229250;78;21128;-86
2021/03/07 09:15:09;;;;;;;16.30;10.63;;;;;;;3.37;62.67;100696.47;2229392;79;21679;-84
2021/03/07 09:18:12;;;;;;;19.52;11.48;;;;;;;3.41;61.89;100690.53;2223643;78;21118;-81
2021/03/07 09:21:17;;;;;;;20.45;11.18;;;;;;;3.41;62.13;100691.84;2197775;78;21590;-83
2021/03/07 09:24:18;;;;;;;18.98;12.20;;;;;;;3.41;61.98;100687.91;2227906;78;21152;-86
2021/03/07 09:27:22;;;;;;;17.48;11.00;;;;;;;3.44;62.24;100689.86;2228948;79;21156;-80
2021/03/07 09:30:24;;;;;;;15.83;10.38;;;;;;;3.46;62.02;100682.70;2225222;78;21168;-79
2021/03/07 09:33:27;;;;;;;17.73;10.95;;;;;;;3.53;62.16;100687.91;2228471;78;21498;-77
2021/03/07 09:36:32;;;;;;;17.27;9.95;;;;;;;3.51;60.89;100677.98;2228261;78;21073;-86
2021/03/07 09:39:33;;;;;;;18.00;11.10;;;;;;;3.50;61.78;100676.79;2226746;78;21109;-80
2021/03/07 09:42:35;;;;;;;18.40;11.50;;;;;;;3.53;61.99;100669.53;2229526;78;21097;-85
2021/03/07 09:45:41;;;;;;;20.25;11.80;;;;;;;3.55;61.83;100678.14;2226092;79;21200;-80
2021/03/07 09:48:45;;;;;;;18.10;11.80;;;;;;;3.51;61.08;100677.14;2223501;77;21914;-81
2021/03/07 09:51:50;;;;;;;16.25;10.25;;;;;;;3.46;61.27;100672.21;2230564;79;21534;-80
2021/03/07 09:54:56;;;;;;;21.33;11.50;;;;;;;3.47;60.96;100670.45;2229395;78;21567;-81
2021/03/07 09:58:04;;;;;;;18.17;11.15;;;;;;;3.51;60.39;100654.36;2229593;78;21120;-81
2021/03/07 10:01:06;;;;;;;16.85;11.75;;;;;;;3.51;60.06;100663.55;2228026;78;21655;-80
2021/03/07 10:04:34;;;;;;;14.35;10.38;;;;;;;3.50;59.96;100664.98;2223149;78;21698;-82
2021/03/07 10:07:35;;;;;;;17.27;10.82;;;;;;;3.46;59.59;100651.70;2228755;78;21121;-84
2021/03/07 10:10:37;;;;;;;17.80;10.88;;;;;;;3.42;60.04;100665.52;2227958;78;21088;-79
2021/03/07 10:13:40;;;;;;;15.68;10.32;;;;;;;3.39;59.77;100662.27;2226513;78;21104;-80
2021/03/07 10:16:47;;;;;;;15.35;9.95;;;;;;;3.38;59.96;100665.38;2226463;78;21193;-82
2021/03/07 10:19:50;;;;;;;18.50;10.98;;;;;;;3.37;60.00;100663.68;2226821;78;21128;-82
2021/03/07 10:22:55;;;;;;;17.35;10.20;;;;;;;3.35;59.36;100661.63;2228655;79;21616;-80
2021/03/07 10:26:00;;;;;;;20.12;12.03;;;;;;;3.36;58.76;100648.42;2222017;78;21105;-82
2021/03/07 10:29:19;;;;;;;21.27;12.45;;;;;;;3.38;59.33;100650.95;2229075;78;21141;-83
2021/03/07 10:32:21;;;;;;;16.62;11.45;;;;;;;3.40;58.90;100649.03;2224651;78;21195;-84
2021/03/07 10:35:22;;;;;;;20.02;12.70;;;;;;;3.45;58.84;100640.37;2226393;78;21189;-83
2021/03/07 10:38:26;;;;;;;22.75;12.43;;;;;;;3.41;58.62;100632.37;2224479;78;21188;-82
2021/03/07 10:41:31;;;;;;;20.17;12.07;;;;;;;3.42;58.68;100637.13;2196211;78;21536;-83
2021/03/07 10:44:34;;;;;;;17.65;11.05;;;;;;;3.45;58.93;100646.93;2202290;78;21176;-82
2021/03/07 10:47:35;;;;;;;19.27;11.57;;;;;;;3.46;58.36;100639.89;2223775;78;21658;-83
2021/03/07 10:50:41;;;;;;;17.80;10.85;;;;;;;3.42;58.58;100639.28;2198675;78;21497;-83
2021/03/07 10:53:43;;;;;;;22.48;10.40;;;;;;;3.43;58.55;100647.50;2225047;78;21120;-83
2021/03/07 10:56:45;;;;;;;18.07;10.80;;;;;;;3.45;58.30;100639.54;2197791;78;21158;-82
2021/03/07 10:59:51;;;;;;;17.77;10.63;;;;;;;3.45;58.28;100641.69;2229317;79;21094;-75
2021/03/07 11:02:53;;;;;;;15.63;10.95;;;;;;;3.43;58.33;100640.11;2223691;78;21121;-84
2021/03/07 11:05:56;;;;;;;20.95;12.55;;;;;;;3.45;58.73;100637.75;2225067;78;21161;-81
2021/03/07 11:08:57;;;;;;;16.32;10.80;;;;;;;3.52;58.97;100631.58;2225534;78;21167;-79
2021/03/07 11:11:59;;;;;;;18.23;10.68;;;;;;;3.53;58.28;100626.23;2225409;78;21605;-82
2021/03/07 11:15:01;;;;;;;17.05;10.78;;;;;;;3.55;58.29;100616.48;2226047;79;21588;-80
2021/03/07 11:18:04;;;;;;;17.73;11.90;;;;;;;3.59;58.41;100611.84;2223938;78;21157;-81
2021/03/07 11:21:07;;;;;;;19.42;12.35;;;;;;;3.64;58.07;100612.84;2230894;79;21282;-81
2021/03/07 11:24:09;;;;;;;19.30;10.85;;;;;;;3.64;57.55;100612.84;2225779;78;21108;-80
2021/03/07 11:27:11;;;;;;;15.53;10.20;;;;;;;3.64;57.83;100601.03;2226637;78;21104;-82
2021/03/07 11:30:14;;;;;;;19.92;11.43;;;;;;;3.66;57.78;100603.91;2223095;78;21184;-78
2021/03/07 11:33:15;;;;;;;18.90;11.85;;;;;;;3.65;57.54;100590.41;2227400;78;21216;-80
2021/03/07 11:36:17;;;;;;;17.15;11.60;;;;;;;3.66;57.82;100599.97;2229853;78;21207;-77
2021/03/07 11:39:22;;;;;;;18.27;12.35;;;;;;;3.71;58.37;100592.58;2224798;78;21223;-81
2021/03/07 11:42:22;;;;;;;17.00;11.88;;;;;;;3.76;57.83;100573.88;2228128;78;21154;-86
2021/03/07 11:45:25;;;;;;;20.15;12.73;;;;;;;3.80;58.01;100587.13;2225908;78;21182;-80
2021/03/07 11:48:28;;;;;;;18.85;12.70;;;;;;;3.87;58.10;100583.13;2198390;78;21192;-83
2021/03/07 11:51:29;;;;;;;16.90;12.18;;;;;;;3.92;57.91;100577.55;2226687;78;21085;-79
2021/03/07 11:54:31;;;;;;;16.95;11.40;;;;;;;3.93;56.82;100566.91;2230106;78;21184;-81
2021/03/07 11:57:34;;;;;;;18.75;11.45;;;;;;;3.91;56.72;100572.75;2226551;78;22186;-80
2021/03/07 12:00:38;;;;;;;16.82;11.80;;;;;;;3.93;56.95;100569.54;2227156;78;21175;-82
2021/03/07 12:03:40;;;;;;;18.40;11.95;;;;;;;3.92;56.92;100564.42;2232053;78;21109;-82
2021/03/07 12:06:41;;;;;;;20.62;13.00;;;;;;;3.94;57.22;100561.19;2229132;78;21130;-82
2021/03/07 12:09:43;;;;;;;18.52;11.83;;;;;;;3.94;57.39;100560.73;2228978;78;21175;-82
2021/03/07 12:12:45;;;;;;;18.85;10.82;;;;;;;3.97;57.65;100555.70;2225616;78;21145;-83
2021/03/07 12:15:46;;;;;;;18.42;11.15;;;;;;;3.99;57.12;100533.63;2225184;78;21104;-81
2021/03/07 12:18:48;;;;;;;19.30;11.05;;;;;;;4.00;56.97;100539.75;2233800;78;21198;-72
2021/03/07 12:21:50;;;;;;;15.83;9.88;;;;;;;3.98;57.10;100537.70;2224266;78;21152;-73
2021/03/07 12:24:51;;;;;;;17.77;10.40;;;;;;;4.03;56.66;100528.53;2230304;78;21137;-72
2021/03/07 12:27:53;;;;;;;14.40;9.88;;;;;;;4.09;57.00;100519.84;2224301;78;21180;-73
2021/03/07 12:30:55;;;;;;;16.82;10.03;;;;;;;4.13;56.13;100527.35;2228306;78;21624;-71
2021/03/07 12:33:56;;;;;;;16.32;10.40;;;;;;;4.15;56.69;100533.34;2229704;78;21580;-72
2021/03/07 12:36:58;;;;;;;14.53;8.95;;;;;;;4.20;56.99;100529.06;2223304;78;21101;-72
2021/03/07 12:40:00;;;;;;;15.28;9.43;;;;;;;4.17;56.13;100524.05;2226094;78;21522;-72
2021/03/07 12:43:01;;;;;;;16.12;9.85;;;;;;;4.10;55.97;100514.45;2226623;78;21155;-82
2021/03/07 12:46:03;;;;;;;16.73;9.40;;;;;;;4.11;56.56;100504.78;2224603;78;21649;-83
2021/03/07 12:49:07;;;;;;;17.67;9.83;;;;;;;4.12;56.63;100515.66;2225175;78;21164;-84
2021/03/07 12:52:10;;;;;;;13.62;9.38;;;;;;;4.08;56.63;100507.64;2226702;78;21660;-81
2021/03/07 12:55:12;;;;;;;16.60;8.83;;;;;;;4.02;56.23;100506.31;2226964;79;22988;-83
2021/03/07 12:58:14;;;;;;;13.25;9.25;;;;;;;4.02;56.77;100507.63;2229819;78;21219;-83
2021/03/07 13:01:17;;;;;;;15.65;9.28;;;;;;;4.04;56.61;100505.25;2227011;78;21126;-81
2021/03/07 13:04:18;;;;;;;17.35;10.25;;;;;;;4.02;56.32;100502.38;2230015;78;21146;-82
2021/03/07 13:07:20;;;;;;;13.88;9.10;;;;;;;4.01;56.19;100498.91;2231112;78;21132;-79
2021/03/07 13:10:21;;;;;;;20.35;11.30;;;;;;;3.96;56.04;100498.90;2228262;78;21631;-78
2021/03/07 13:13:25;;;;;;;13.03;8.53;;;;;;;3.87;56.01;100499.59;2227485;79;21179;-79
2021/03/07 13:16:27;;;;;;;16.82;9.03;;;;;;;3.79;56.40;100494.91;2226017;78;21150;-79
2021/03/07 13:19:28;;;;;;;15.03;8.58;;;;;;;3.76;56.24;100490.72;2224593;78;21144;-80
2021/03/07 13:22:30;;;;;;;15.20;9.48;;;;;;;3.72;56.32;100476.16;2232336;78;21136;-81
2021/03/07 13:25:32;;;;;;;16.37;9.40;;;;;;;3.71;56.75;100481.52;2229910;78;21187;-81
2021/03/07 13:28:33;;;;;;;15.93;7.87;;;;;;;3.71;56.64;100473.64;2222723;78;21148;-80
2021/03/07 13:31:36;;;;;;;18.02;8.63;;;;;;;3.71;56.68;100475.78;2224855;78;21204;-81
2021/03/07 13:34:40;;;;;;;14.53;8.95;;;;;;;3.71;56.70;100469.70;2190075;79;21136;-82
2021/03/07 13:37:41;;;;;;;23.02;11.05;;;;;;;3.73;56.79;100477.00;2224388;78;21156;-81
2021/03/07 13:40:43;;;;;;;13.28;8.83;;;;;;;3.74;56.84;100474.72;2224870;79;21112;-82
2021/03/07 13:43:44;;;;;;;35.60;14.80;;;;;;;3.78;56.56;100463.06;2226165;78;21113;-80
2021/03/07 13:46:46;;;;;;;16.30;9.40;;;;;;;3.82;56.02;100456.13;2225814;79;21149;-78
2021/03/07 13:49:48;;;;;;;14.75;8.73;;;;;;;3.89;55.98;100464.88;2225079;78;21172;-80
2021/03/07 13:52:50;;;;;;;12.73;8.38;;;;;;;3.94;54.74;100457.48;2226954;78;21484;-80
2021/03/07 13:55:51;;;;;;;16.62;8.35;;;;;;;3.92;55.10;100453.67;2228404;78;21176;-79
2021/03/07 13:58:53;;;;;;;13.18;8.48;;;;;;;3.90;55.40;100458.19;2225382;78;21202;-79
2021/03/07 14:01:57;;;;;;;14.50;8.63;;;;;;;3.90;55.56;100454.25;2225121;79;21160;-82
2021/03/07 14:04:58;;;;;;;14.55;9.83;;;;;;;3.88;55.36;100450.89;2229335;78;21137;-79
2021/03/07 14:07:59;;;;;;;13.53;9.30;;;;;;;3.87;55.15;100440.53;2226334;78;21116;-79
2021/03/07 14:11:01;;;;;;;12.58;8.55;;;;;;;3.83;55.26;100441.24;2224004;78;21168;-81